Time;durP1;ratioP1;P1;durP2;ratioP2;P2;SDS_P1;SDS_P2;PMS_P1;PMS_P2;Temp;Humidity;BMP_temperature;BMP_pressure;BME280_temperature;BME280_humidity;BME280_pressure;Samples;Min_cycle;Max_cycle;Signal;HPM_P1;HPM_P2
2021/07/08 00:02:54;;;;;;;4.78;2.28;;;23.60;68.90;;;;;;6300554;28;20066;-75
2021/07/08 00:05:56;;;;;;;2.28;1.70;;;23.50;68.70;;;;;;6301663;28;20033;-74
2021/07/08 00:08:58;;;;;;;1.98;1.55;;;23.40;68.70;;;;;;6301741;28;20392;-74
2021/07/08 00:11:59;;;;;;;4.53;1.70;;;23.40;68.80;;;;;;6302053;28;20399;-75
2021/07/08 00:15:01;;;;;;;3.50;1.75;;;23.40;68.90;;;;;;6301581;28;20083;-75
2021/07/08 00:18:06;;;;;;;2.38;1.65;;;23.30;68.80;;;;;;6316188;28;20050;-75
2021/07/08 00:21:08;;;;;;;4.38;2.00;;;23.40;68.70;;;;;;6301177;28;20040;-75
2021/07/08 00:24:09;;;;;;;4.13;1.52;;;23.40;68.40;;;;;;6268644;28;20033;-75
2021/07/08 00:27:10;;;;;;;3.88;1.60;;;23.30;68.10;;;;;;6318307;28;20032;-75
2021/07/08 00:30:12;;;;;;;2.10;1.90;;;23.30;68.20;;;;;;6278368;28;20030;-75
2021/07/08 00:33:13;;;;;;;7.03;2.03;;;23.30;68.50;;;;;;6294948;28;20453;-73
2021/07/08 00:36:15;;;;;;;2.70;1.50;;;23.20;67.40;;;;;;6294058;28;20052;-74
2021/07/08 00:39:16;;;;;;;5.43;1.70;;;23.20;65.30;;;;;;6275943;28;20459;-74
2021/07/08 00:42:18;;;;;;;6.43;1.52;;;23.20;63.90;;;;;;6276124;28;20033;-73
2021/07/08 00:45:21;;;;;;;1.30;1.20;;;23.20;63.20;;;;;;6273700;28;20039;-75
2021/07/08 00:48:22;;;;;;;2.92;1.40;;;23.20;62.20;;;;;;6288040;28;20055;-74
2021/07/08 00:51:23;;;;;;;7.50;1.40;;;23.20;61.30;;;;;;6300801;28;20361;-74
2021/07/08 00:54:25;;;;;;;2.38;1.35;;;23.20;60.30;;;;;;6299709;28;20033;-73
2021/07/08 00:57:27;;;;;;;2.35;1.42;;;23.20;59.90;;;;;;6284211;28;20040;-74
2021/07/08 01:00:32;;;;;;;1.83;1.20;;;23.20;59.40;;;;;;6273971;28;20465;-73
2021/07/08 01:03:34;;;;;;;3.70;1.10;;;23.20;58.90;;;;;;6300292;28;20052;-74
2021/07/08 01:06:40;;;;;;;5.00;1.33;;;23.20;58.70;;;;;;6300379;28;20029;-74
2021/07/08 01:09:42;;;;;;;3.95;1.10;;;23.10;58.40;;;;;;6301540;28;20033;-74
2021/07/08 01:12:43;;;;;;;4.68;1.13;;;23.10;57.90;;;;;;6315984;28;20052;-74
2021/07/08 01:15:45;;;;;;;3.50;1.00;;;23.10;57.70;;;;;;6300711;28;20040;-77
2021/07/08 01:18:46;;;;;;;6.38;1.38;;;23.10;57.30;;;;;;6299123;28;20025;-75
2021/07/08 01:21:47;;;;;;;3.03;1.15;;;23.10;56.90;;;;;;6283036;28;20033;-75
2021/07/08 01:24:49;;;;;;;1.70;1.25;;;23.10;56.60;;;;;;6274896;28;20063;-75
2021/07/08 01:27:52;;;;;;;3.83;0.95;;;23.00;56.20;;;;;;6275883;28;20528;-75
2021/07/08 01:30:54;;;;;;;2.20;1.05;;;23.00;56.50;;;;;;6277664;28;20377;-75
2021/07/08 01:33:56;;;;;;;5.78;1.55;;;23.00;56.30;;;;;;6299731;28;20082;-74
2021/07/08 01:36:57;;;;;;;3.67;1.30;;;22.90;56.50;;;;;;6315587;28;20045;-74
2021/07/08 01:40:00;;;;;;;2.47;1.27;;;22.70;57.60;;;;;;6299934;28;20107;-74
2021/07/08 01:43:02;;;;;;;3.65;1.30;;;22.30;60.90;;;;;;6300026;28;20041;-74
2021/07/08 01:46:07;;;;;;;3.90;1.60;;;21.80;63.40;;;;;;6299108;28;20036;-74
2021/07/08 01:49:08;;;;;;;2.05;1.05;;;21.30;65.30;;;;;;6266598;28;20108;-75
2021/07/08 01:52:10;;;;;;;1.75;1.13;;;20.90;67.10;;;;;;6300059;28;20044;-74
2021/07/08 01:55:12;;;;;;;3.13;1.10;;;20.60;67.90;;;;;;6273557;28;20488;-76
2021/07/08 01:58:13;;;;;;;2.15;1.15;;;20.40;68.70;;;;;;6274001;28;20041;-74
2021/07/08 02:01:15;;;;;;;1.08;1.00;;;20.20;69.10;;;;;;6291175;28;20044;-74
2021/07/08 02:04:17;;;;;;;1.40;0.98;;;20.10;69.50;;;;;;6275767;28;20044;-74
2021/07/08 02:07:18;;;;;;;1.42;0.90;;;20.10;69.50;;;;;;6299128;28;20048;-74
2021/07/08 02:10:20;;;;;;;2.67;1.00;;;20.00;69.30;;;;;;6298921;28;20098;-74
2021/07/08 02:13:21;;;;;;;1.15;1.02;;;20.10;69.40;;;;;;6281764;28;20033;-74
2021/07/08 02:16:22;;;;;;;2.85;1.15;;;20.20;69.40;;;;;;6282259;28;20036;-74
2021/07/08 02:19:24;;;;;;;4.25;1.25;;;20.10;69.30;;;;;;6298768;28;20058;-73
2021/07/08 02:22:25;;;;;;;4.30;0.88;;;20.10;70.10;;;;;;6297607;28;20534;-74
2021/07/08 02:25:26;;;;;;;1.63;1.08;;;20.00;70.70;;;;;;6297777;28;20343;-75
2021/07/08 02:28:28;;;;;;;4.43;1.55;;;19.90;71.00;;;;;;6299973;28;20035;-75
2021/07/08 02:31:30;;;;;;;1.48;0.77;;;19.90;71.40;;;;;;6297737;28;20033;-74
2021/07/08 02:34:31;;;;;;;2.08;1.00;;;19.90;71.40;;;;;;6298069;28;20044;-74
2021/07/08 02:37:32;;;;;;;4.30;0.85;;;19.90;71.20;;;;;;6294460;28;20045;-74
2021/07/08 02:40:35;;;;;;;3.00;1.15;;;19.90;70.80;;;;;;6297642;28;20040;-74
2021/07/08 02:43:36;;;;;;;1.58;1.00;;;19.90;70.20;;;;;;6297549;28;20040;-74
2021/07/08 02:46:37;;;;;;;1.83;0.93;;;19.90;70.00;;;;;;6298228;28;20365;-74
2021/07/08 02:49:39;;;;;;;1.20;0.90;;;19.90;70.10;;;;;;6264988;28;20037;-74
2021/07/08 02:52:40;;;;;;;1.50;1.20;;;19.90;70.00;;;;;;6271712;28;20168;-74
2021/07/08 02:55:41;;;;;;;1.75;0.93;;;20.00;69.80;;;;;;6273458;28;20055;-74
2021/07/08 02:58:42;;;;;;;1.58;1.20;;;20.00;69.60;;;;;;6273599;28;20033;-74
2021/07/08 03:01:43;;;;;;;0.75;0.75;;;20.10;69.40;;;;;;6272947;28;20037;-74
2021/07/08 03:04:47;;;;;;;1.23;0.80;;;20.20;69.00;;;;;;6313616;28;20060;-74
2021/07/08 03:07:48;;;;;;;1.27;0.90;;;20.20;68.50;;;;;;6306361;28;20051;-74
2021/07/08 03:10:49;;;;;;;1.50;0.90;;;20.30;68.20;;;;;;6264517;28;20025;-73
2021/07/08 03:13:51;;;;;;;1.52;0.95;;;20.30;68.00;;;;;;6299717;28;20132;-74
2021/07/08 03:16:52;;;;;;;1.58;1.00;;;20.40;67.90;;;;;;6298617;28;20040;-74
2021/07/08 03:19:53;;;;;;;1.33;1.00;;;20.40;67.60;;;;;;6285353;28;20033;-74
2021/07/08 03:22:54;;;;;;;1.73;1.00;;;20.50;67.30;;;;;;6257400;28;20032;-74
2021/07/08 03:25:55;;;;;;;2.22;1.00;;;20.50;67.10;;;;;;6257372;28;20063;-74
2021/07/08 03:28:57;;;;;;;0.95;0.80;;;20.50;66.80;;;;;;6275290;28;20404;-73
2021/07/08 03:31:58;;;;;;;1.55;1.00;;;20.60;66.50;;;;;;6277309;28;20033;-74
2021/07/08 03:34:59;;;;;;;1.23;0.90;;;20.60;66.40;;;;;;6277704;28;20108;-74
2021/07/08 03:38:01;;;;;;;1.00;0.90;;;20.60;66.20;;;;;;6268913;28;20037;-74
2021/07/08 03:41:02;;;;;;;0.98;0.75;;;20.70;65.90;;;;;;6301484;28;20043;-74
2021/07/08 03:44:03;;;;;;;0.80;0.80;;;20.70;65.40;;;;;;6302433;28;20128;-74
2021/07/08 03:47:05;;;;;;;2.95;1.00;;;20.80;65.20;;;;;;6310230;28;20037;-74
2021/07/08 03:50:08;;;;;;;3.53;0.80;;;20.80;65.10;;;;;;6280090;28;20033;-74
2021/07/08 03:53:09;;;;;;;0.70;0.70;;;20.80;65.10;;;;;;6274544;28;20068;-74
2021/07/08 03:56:12;;;;;;;0.80;0.73;;;20.80;65.00;;;;;;6276601;28;20049;-74
2021/07/08 03:59:13;;;;;;;7.53;0.88;;;20.80;64.80;;;;;;6297596;28;20024;-74
2021/07/08 04:02:14;;;;;;;1.23;0.75;;;20.80;64.90;;;;;;6314160;28;20036;-75
2021/07/08 04:05:16;;;;;;;1.38;1.02;;;20.80;65.20;;;;;;6297238;28;20123;-74
2021/07/08 04:08:42;;;;;;;1.45;0.80;;;20.70;65.40;;;;;;6292536;28;20036;-74
2021/07/08 04:11:43;;;;;;;1.20;0.88;;;20.80;65.90;;;;;;6269230;28;20120;-74
2021/07/08 04:14:44;;;;;;;1.00;0.90;;;20.70;66.10;;;;;;6273678;28;20040;-75
2021/07/08 04:17:46;;;;;;;1.23;1.08;;;20.70;66.40;;;;;;6293177;28;20462;-74
2021/07/08 04:20:48;;;;;;;2.63;1.00;;;20.80;66.60;;;;;;6295254;28;20032;-74
2021/07/08 04:23:49;;;;;;;1.92;0.90;;;20.80;66.60;;;;;;6294955;28;20037;-75
2021/07/08 04:26:50;;;;;;;3.97;1.20;;;20.80;66.70;;;;;;6281902;28;20374;-74
2021/07/08 04:29:52;;;;;;;2.22;0.90;;;20.80;66.80;;;;;;6285293;28;20361;-74
2021/07/08 04:32:54;;;;;;;1.52;1.00;;;20.90;67.20;;;;;;6322694;28;20079;-74
2021/07/08 04:35:55;;;;;;;2.17;1.10;;;21.10;67.00;;;;;;6329186;28;20036;-75
2021/07/08 04:38:56;;;;;;;2.67;1.00;;;21.00;66.80;;;;;;6323216;28;20475;-73
2021/07/08 04:41:57;;;;;;;2.60;1.23;;;21.00;66.80;;;;;;6307354;28;20040;-74
2021/07/08 04:44:59;;;;;;;2.38;1.20;;;21.10;66.80;;;;;;6307529;28;20385;-74
2021/07/08 04:48:00;;;;;;;2.85;1.13;;;21.10;66.80;;;;;;6298391;28;20071;-73
2021/07/08 04:51:04;;;;;;;2.47;1.38;;;21.10;66.80;;;;;;6281894;28;20036;-74
2021/07/08 04:54:06;;;;;;;3.33;1.00;;;21.10;66.80;;;;;;6295549;28;20455;-74
2021/07/08 04:57:07;;;;;;;1.48;1.00;;;21.10;66.90;;;;;;6276848;28;20117;-73
2021/07/08 05:00:11;;;;;;;1.75;1.30;;;21.20;66.90;;;;;;6298206;28;20037;-74
2021/07/08 05:03:12;;;;;;;1.80;0.95;;;21.20;66.90;;;;;;6284800;28;20086;-75
2021/07/08 05:06:13;;;;;;;5.90;1.10;;;21.20;66.80;;;;;;6297314;28;20048;-75
2021/07/08 05:09:14;;;;;;;2.63;1.00;;;21.30;66.80;;;;;;6297050;28;20059;-75
2021/07/08 05:12:15;;;;;;;1.90;1.23;;;21.30;66.60;;;;;;6297158;28;20039;-75
2021/07/08 05:15:17;;;;;;;2.60;1.25;;;21.30;66.40;;;;;;6296337;28;20032;-75
2021/07/08 05:18:18;;;;;;;4.03;1.33;;;21.40;66.20;;;;;;6289505;28;20045;-75
2021/07/08 05:21:21;;;;;;;1.80;1.40;;;21.40;66.10;;;;;;6297440;28;20036;-75
2021/07/08 05:24:23;;;;;;;1.25;1.00;;;21.50;66.10;;;;;;6284632;28;20049;-75
2021/07/08 05:27:25;;;;;;;2.38;1.05;;;21.50;66.00;;;;;;6273500;28;20045;-75
2021/07/08 05:30:26;;;;;;;7.95;1.23;;;21.60;65.90;;;;;;6272852;28;20183;-74
2021/07/08 05:33:27;;;;;;;3.83;0.90;;;21.70;65.70;;;;;;6300130;28;20034;-75
2021/07/08 05:36:28;;;;;;;2.47;1.00;;;21.80;65.40;;;;;;6286362;28;20067;-75
2021/07/08 05:39:29;;;;;;;6.60;1.20;;;21.80;65.20;;;;;;6295144;28;20037;-75
2021/07/08 05:42:30;;;;;;;1.42;0.93;;;21.80;65.00;;;;;;6296984;28;20097;-75
2021/07/08 05:45:32;;;;;;;0.98;0.90;;;21.90;64.80;;;;;;6296615;28;20044;-74
2021/07/08 05:48:34;;;;;;;5.25;1.20;;;22.00;64.60;;;;;;6298059;28;20369;-75
2021/07/08 05:51:38;;;;;;;3.97;1.10;;;22.00;64.40;;;;;;6295250;28;20487;-75
2021/07/08 05:54:41;;;;;;;0.73;0.70;;;22.00;64.40;;;;;;6295928;28;20496;-75
2021/07/08 05:57:48;;;;;;;2.13;1.50;;;22.00;64.30;;;;;;6312670;28;20047;-75
2021/07/08 06:00:50;;;;;;;1.23;0.90;;;22.00;64.20;;;;;;6296062;28;20029;-76
2021/07/08 06:03:51;;;;;;;2.92;1.20;;;22.00;63.90;;;;;;6283900;28;20060;-75
2021/07/08 06:10:51;;;;;;;1.10;1.00;;;22.00;64.00;;;;;;6295243;28;20452;-74
2021/07/08 06:14:48;;;;;;;1.15;0.90;;;22.00;63.90;;;;;;6293717;28;20097;-74
2021/07/08 06:17:50;;;;;;;1.23;1.00;;;22.00;63.20;;;;;;6293167;28;20036;-74
2021/07/08 06:20:51;;;;;;;2.22;1.50;;;22.00;62.50;;;;;;6310481;28;20106;-75
2021/07/08 06:23:53;;;;;;;2.88;1.60;;;22.00;61.80;;;;;;6292172;28;20032;-75
2021/07/08 06:26:54;;;;;;;4.97;1.10;;;22.00;61.40;;;;;;6307206;28;20079;-75
2021/07/08 06:29:55;;;;;;;3.17;1.33;;;22.00;61.10;;;;;;6310708;28;20037;-75
2021/07/08 06:32:56;;;;;;;1.65;1.40;;;22.10;60.90;;;;;;6292199;28;20051;-75
2021/07/08 06:35:57;;;;;;;5.18;1.40;;;22.20;60.50;;;;;;6268566;28;20037;-75
2021/07/08 06:38:58;;;;;;;3.45;1.38;;;22.30;59.90;;;;;;6269107;28;20033;-74
2021/07/08 06:41:59;;;;;;;4.40;1.20;;;22.40;59.50;;;;;;6285422;28;20037;-74
2021/07/08 06:45:01;;;;;;;2.28;1.70;;;22.50;59.20;;;;;;6269448;28;20078;-74
2021/07/08 06:48:03;;;;;;;2.25;1.52;;;22.60;59.00;;;;;;6296773;28;20314;-76
2021/07/08 06:51:04;;;;;;;2.17;1.00;;;22.70;58.70;;;;;;6275604;28;20090;-74
2021/07/08 06:54:06;;;;;;;8.48;1.85;;;22.80;58.50;;;;;;6274021;28;20118;-74
2021/07/08 06:57:07;;;;;;;11.68;1.50;;;22.80;58.30;;;;;;6292611;28;20410;-75
2021/07/08 07:00:09;;;;;;;1.33;1.15;;;23.00;58.20;;;;;;6293471;28;20032;-75
2021/07/08 07:03:10;;;;;;;2.67;1.45;;;23.10;57.90;;;;;;6293665;28;20067;-75
2021/07/08 07:06:13;;;;;;;2.65;1.40;;;23.10;57.70;;;;;;6310220;28;20037;-75
2021/07/08 07:09:19;;;;;;;2.35;1.55;;;23.20;57.50;;;;;;6293284;28;20028;-75
2021/07/08 07:12:21;;;;;;;6.72;1.30;;;23.20;56.70;;;;;;6276048;28;20024;-75
2021/07/08 07:15:26;;;;;;;2.88;1.20;;;23.20;56.70;;;;;;6293851;28;20029;-75
2021/07/08 07:18:27;;;;;;;1.35;1.20;;;23.20;57.10;;;;;;6294143;28;20036;-75
2021/07/08 07:21:28;;;;;;;5.43;1.13;;;23.20;56.40;;;;;;6311164;28;20047;-75
2021/07/08 07:24:29;;;;;;;5.93;1.60;;;23.20;56.40;;;;;;6310570;28;20044;-75
2021/07/08 07:27:31;;;;;;;5.10;1.30;;;23.30;56.20;;;;;;6292949;28;20052;-74
2021/07/08 07:30:32;;;;;;;1.15;0.70;;;23.20;56.30;;;;;;6295336;28;20047;-75
2021/07/08 07:33:34;;;;;;;4.28;0.82;;;23.20;56.10;;;;;;6297318;28;20034;-75
2021/07/08 07:36:35;;;;;;;1.92;1.10;;;23.20;55.90;;;;;;6290933;28;20381;-75
2021/07/08 07:39:36;;;;;;;11.52;2.03;;;23.10;55.90;;;;;;6310404;28;20461;-75
2021/07/08 07:42:38;;;;;;;5.53;1.00;;;23.00;56.10;;;;;;6294026;28;20051;-75
2021/07/08 07:45:41;;;;;;;7.15;0.90;;;22.90;56.20;;;;;;6312739;28;20342;-75
2021/07/08 07:48:44;;;;;;;0.55;0.55;;;22.90;56.40;;;;;;6295649;28;20043;-75
2021/07/08 07:51:45;;;;;;;7.68;1.05;;;22.80;56.40;;;;;;6295129;28;20063;-75
2021/07/08 07:54:46;;;;;;;1.05;0.93;;;22.80;56.20;;;;;;6294297;28;20431;-75
2021/07/08 07:57:48;;;;;;;2.13;1.27;;;22.70;56.30;;;;;;6311378;28;20044;-75
2021/07/08 08:00:49;;;;;;;3.97;2.03;;;22.70;56.40;;;;;;6296369;28;20086;-75
2021/07/08 08:03:50;;;;;;;3.22;1.00;;;22.70;56.40;;;;;;6298370;28;20060;-75
2021/07/08 08:10:11;;;;;;;0.85;0.85;;;22.70;56.50;;;;;;6298243;28;20040;-75
2021/07/08 08:13:12;;;;;;;1.52;0.90;;;22.70;56.50;;;;;;6299204;28;20064;-75
2021/07/08 08:16:13;;;;;;;3.70;1.48;;;22.70;56.50;;;;;;6314931;28;20090;-76
2021/07/08 08:19:14;;;;;;;1.58;0.80;;;22.70;56.60;;;;;;6316500;28;20036;-76
2021/07/08 08:22:17;;;;;;;1.58;0.95;;;22.70;56.80;;;;;;6299290;28;20029;-74
2021/07/08 08:25:19;;;;;;;2.28;0.90;;;22.60;56.70;;;;;;6316203;28;20055;-74
2021/07/08 08:28:20;;;;;;;0.70;0.70;;;22.60;56.80;;;;;;6315831;28;20040;-75
2021/07/08 08:31:21;;;;;;;3.85;1.00;;;22.60;56.90;;;;;;6302898;28;20047;-75
2021/07/08 08:34:22;;;;;;;1.23;0.90;;;22.60;56.90;;;;;;6282411;28;20457;-74
2021/07/08 08:42:08;;;;;;;5.05;1.20;;;22.50;56.90;;;;;;6292817;28;20033;-76
2021/07/08 08:45:12;;;;;;;2.30;1.65;;;22.50;56.90;;;;;;6294357;28;20362;-75
2021/07/08 08:48:13;;;;;;;11.07;2.28;;;22.50;56.90;;;;;;6310771;28;20029;-73
2021/07/08 08:51:14;;;;;;;2.42;1.35;;;22.50;56.90;;;;;;6294510;28;20063;-76
2021/07/08 08:54:19;;;;;;;5.47;1.30;;;22.60;56.90;;;;;;6294176;28;20048;-76
2021/07/08 08:57:20;;;;;;;5.78;1.67;;;22.70;56.70;;;;;;6296413;28;20395;-74
2021/07/08 09:00:24;;;;;;;1.40;1.05;;;22.90;56.50;;;;;;6296162;28;20033;-76
2021/07/08 09:03:28;;;;;;;3.35;1.40;;;23.00;56.20;;;;;;6294085;28;20144;-75
2021/07/08 09:06:37;;;;;;;7.72;1.35;;;23.10;56.00;;;;;;6294742;28;20037;-73
2021/07/08 09:09:38;;;;;;;10.70;1.70;;;23.20;55.70;;;;;;6310883;28;20052;-74
2021/07/08 09:12:39;;;;;;;2.72;1.30;;;23.40;55.20;;;;;;6288086;28;20054;-74
2021/07/08 09:15:40;;;;;;;3.53;1.33;;;23.60;54.80;;;;;;6295388;28;20032;-75
2021/07/08 09:18:43;;;;;;;1.60;1.15;;;23.60;54.50;;;;;;6295230;28;20085;-75
2021/07/08 09:21:59;;;;;;;6.25;1.55;;;23.60;54.40;;;;;;6294345;28;20033;-75
2021/07/08 09:25:20;;;;;;;8.90;1.30;;;23.70;54.30;;;;;;6311017;28;20028;-76
2021/07/08 09:28:25;;;;;;;4.78;1.50;;;23.70;54.20;;;;;;6294511;28;20098;-74
2021/07/08 09:31:26;;;;;;;2.00;1.55;;;23.70;54.10;;;;;;6296279;28;20037;-74
2021/07/08 09:34:30;;;;;;;3.25;1.25;;;23.60;54.10;;;;;;6291350;28;20376;-77
2021/07/08 09:37:32;;;;;;;2.55;1.30;;;23.60;54.10;;;;;;6270276;28;20429;-75
2021/07/08 09:40:33;;;;;;;3.53;2.38;;;23.50;54.10;;;;;;6283161;28;20485;-76
2021/07/08 09:43:36;;;;;;;1.80;1.38;;;23.40;54.10;;;;;;6268088;28;20124;-73
2021/07/08 09:46:38;;;;;;;7.00;1.98;;;23.40;54.30;;;;;;6313033;28;20093;-75
2021/07/08 09:49:42;;;;;;;1.33;1.20;;;23.20;54.40;;;;;;6294277;28;20484;-74
2021/07/08 09:53:01;;;;;;;6.07;1.17;;;23.10;54.70;;;;;;6290546;28;20534;-76
2021/07/08 09:59:20;;;;;;;3.05;1.30;;;23.00;55.00;;;;;;6291834;28;20370;-74
2021/07/08 10:02:33;;;;;;;1.90;1.08;;;22.90;55.30;;;;;;6311456;28;20043;-75
2021/07/08 10:05:37;;;;;;;6.72;1.25;;;22.80;55.40;;;;;;6275289;28;20025;-74
2021/07/08 10:08:40;;;;;;;11.93;1.67;;;22.80;56.20;;;;;;6293492;28;20410;-76
2021/07/08 10:11:42;;;;;;;1.02;0.93;;;22.80;56.00;;;;;;6266806;28;20036;-74
2021/07/08 10:14:43;;;;;;;2.97;1.20;;;22.70;55.90;;;;;;6268498;28;20103;-77
2021/07/08 10:17:45;;;;;;;2.17;1.35;;;22.60;55.90;;;;;;6293044;28;20036;-74
2021/07/08 10:20:48;;;;;;;1.58;1.48;;;22.60;56.10;;;;;;6292525;28;20032;-75
2021/07/08 10:23:51;;;;;;;3.63;1.25;;;22.60;56.20;;;;;;6291940;28;20040;-76
2021/07/08 10:26:53;;;;;;;2.53;1.63;;;22.60;56.50;;;;;;6291080;28;20037;-75
2021/07/08 10:29:56;;;;;;;3.03;1.40;;;22.60;56.90;;;;;;6280756;28;20460;-75
2021/07/08 10:32:59;;;;;;;3.72;1.58;;;22.50;57.20;;;;;;6281173;28;20414;-75
2021/07/08 10:36:00;;;;;;;1.38;1.20;;;22.50;57.30;;;;;;6251624;28;20068;-76
2021/07/08 10:39:10;;;;;;;2.38;1.45;;;22.50;57.60;;;;;;6288892;28;20094;-75
2021/07/08 10:42:11;;;;;;;1.60;1.15;;;22.30;57.90;;;;;;6275787;28;20140;-75
2021/07/08 10:45:21;;;;;;;2.17;1.25;;;22.20;58.30;;;;;;6292931;28;20037;-75
2021/07/08 10:48:25;;;;;;;3.00;1.25;;;22.20;58.50;;;;;;6276690;28;20448;-76
2021/07/08 10:51:38;;;;;;;1.58;1.35;;;22.20;58.60;;;;;;6292080;28;20361;-75
2021/07/08 10:54:47;;;;;;;1.45;1.00;;;22.20;58.50;;;;;;6309720;28;20060;-76
2021/07/08 10:57:49;;;;;;;2.83;0.70;;;22.30;58.10;;;;;;6293595;28;20119;-75
2021/07/08 11:00:50;;;;;;;0.73;0.70;;;22.30;57.70;;;;;;6292876;28;20036;-76
2021/07/08 11:03:54;;;;;;;1.52;1.08;;;22.40;57.40;;;;;;6275971;28;20167;-75
2021/07/08 11:07:16;;;;;;;1.80;1.13;;;22.30;57.60;;;;;;6279680;28;20032;-75
2021/07/08 11:10:33;;;;;;;1.70;0.98;;;22.30;58.00;;;;;;6311408;28;20039;-75
2021/07/08 11:13:35;;;;;;;2.33;1.10;;;22.30;58.20;;;;;;6265659;28;20576;-75
2021/07/08 11:16:43;;;;;;;1.52;1.00;;;22.30;58.30;;;;;;6275818;28;20048;-75
2021/07/08 11:19:47;;;;;;;1.92;1.40;;;22.30;58.40;;;;;;6309676;28;20032;-74
2021/07/08 11:22:48;;;;;;;3.55;1.10;;;22.50;58.30;;;;;;6307414;28;20020;-75
2021/07/08 11:25:50;;;;;;;2.55;1.23;;;22.80;57.70;;;;;;6293770;28;20025;-75
2021/07/08 11:29:00;;;;;;;1.15;0.73;;;23.10;57.00;;;;;;6272028;28;20476;-75
2021/07/08 11:32:37;;;;;;;0.70;0.70;;;23.40;56.20;;;;;;6293546;28;20373;-75
2021/07/08 11:35:39;;;;;;;1.23;1.02;;;23.60;55.60;;;;;;6250183;28;20025;-75
2021/07/08 11:38:45;;;;;;;2.45;1.00;;;23.80;54.80;;;;;;6292886;28;20033;-75
2021/07/08 11:41:49;;;;;;;1.08;0.85;;;24.00;54.50;;;;;;6287967;28;20024;-75
2021/07/08 11:44:54;;;;;;;3.88;0.93;;;24.20;54.00;;;;;;6290568;28;20338;-75
2021/07/08 11:47:58;;;;;;;1.38;1.00;;;24.50;53.40;;;;;;6295192;28;20086;-75
2021/07/08 11:51:00;;;;;;;2.15;1.00;;;24.60;52.90;;;;;;6273945;28;20029;-75
2021/07/08 11:54:06;;;;;;;3.33;0.93;;;24.70;52.80;;;;;;6279722;28;20119;-76
2021/07/08 11:57:08;;;;;;;1.10;1.00;;;24.60;52.80;;;;;;6280113;28;20094;-74
2021/07/08 12:00:09;;;;;;;1.77;0.88;;;24.60;52.80;;;;;;6298060;28;20116;-74
2021/07/08 12:03:21;;;;;;;0.80;0.80;;;24.50;52.70;;;;;;6296426;28;20113;-75
2021/07/08 12:06:26;;;;;;;3.30;1.05;;;24.50;52.80;;;;;;6279058;28;20434;-74
2021/07/08 12:09:28;;;;;;;3.33;1.02;;;24.40;52.70;;;;;;6313668;28;20033;-74
2021/07/08 12:12:30;;;;;;;2.85;1.33;;;24.30;53.00;;;;;;6299418;28;20108;-74
2021/07/08 12:15:40;;;;;;;5.40;1.23;;;24.20;53.10;;;;;;6299371;28;20024;-74
2021/07/08 12:18:45;;;;;;;5.10;2.28;;;24.20;53.40;;;;;;6298128;28;20055;-74
2021/07/08 12:21:48;;;;;;;1.65;1.25;;;24.20;53.40;;;;;;6299483;28;20082;-74
2021/07/08 12:24:49;;;;;;;2.97;1.75;;;24.30;53.30;;;;;;6295828;28;20036;-75
2021/07/08 12:27:51;;;;;;;1.88;1.25;;;24.30;52.90;;;;;;6298432;28;20029;-74
2021/07/08 12:30:56;;;;;;;1.20;1.10;;;24.40;52.70;;;;;;6299638;28;20037;-75
2021/07/08 12:34:06;;;;;;;2.08;1.10;;;24.40;52.40;;;;;;6281986;28;20044;-74
2021/07/08 12:37:13;;;;;;;3.00;1.63;;;24.30;52.50;;;;;;6297378;28;20040;-74
2021/07/08 12:40:20;;;;;;;3.08;1.60;;;24.20;52.80;;;;;;6315440;28;20464;-74
2021/07/08 12:43:26;;;;;;;3.50;1.30;;;24.20;52.90;;;;;;6298829;28;20036;-76
2021/07/08 12:46:30;;;;;;;1.88;1.35;;;24.30;52.80;;;;;;6282157;28;20056;-74
2021/07/08 12:49:32;;;;;;;6.75;1.67;;;24.40;52.90;;;;;;6285366;28;20119;-75
2021/07/08 12:52:36;;;;;;;2.58;1.30;;;24.30;52.60;;;;;;6273871;28;20033;-75
2021/07/08 12:55:49;;;;;;;4.65;1.50;;;24.30;52.40;;;;;;6273405;28;20037;-75
2021/07/08 12:59:00;;;;;;;2.00;1.35;;;24.40;52.40;;;;;;6272015;28;20044;-74
2021/07/08 13:02:01;;;;;;;13.35;2.20;;;24.60;52.20;;;;;;6291287;28;20376;-74
2021/07/08 13:05:09;;;;;;;2.00;1.70;;;24.80;52.00;;;;;;6319800;28;20035;-74
2021/07/08 13:08:12;;;;;;;3.75;1.30;;;25.00;51.60;;;;;;6294554;28;20323;-75
2021/07/08 13:11:16;;;;;;;5.30;1.30;;;25.00;51.50;;;;;;6293094;28;20462;-75
2021/07/08 13:14:24;;;;;;;2.58;1.70;;;25.00;51.50;;;;;;6293587;28;20321;-75
2021/07/08 13:17:33;;;;;;;;;;;25.30;51.00;;;;;;6288469;28;20119;-74
2021/07/08 13:20:37;;;;;;;3.17;1.63;;;25.70;50.50;;;;;;6294009;28;20072;-76
2021/07/08 13:23:39;;;;;;;3.40;1.90;;;26.10;49.50;;;;;;6294436;28;20143;-76
2021/07/08 13:26:45;;;;;;;2.95;1.60;;;26.20;49.00;;;;;;6308412;28;20031;-74
2021/07/08 13:29:47;;;;;;;2.90;1.92;;;26.40;48.80;;;;;;6292253;28;20029;-75
2021/07/08 13:33:08;;;;;;;2.38;1.50;;;26.60;48.30;;;;;;6290624;28;20036;-75
2021/07/08 13:36:18;;;;;;;1.88;1.38;;;26.70;48.00;;;;;;6287627;28;20028;-75
2021/07/08 13:44:19;;;;;;;2.90;1.50;;;26.90;47.20;;;;;;6296567;28;20033;-75
2021/07/08 13:47:24;;;;;;;2.22;1.42;;;27.90;45.80;;;;;;6261026;28;20021;-75
2021/07/08 13:50:29;;;;;;;2.17;1.40;;;28.50;44.60;;;;;;6270452;28;20041;-75
2021/07/08 13:53:30;;;;;;;4.32;1.40;;;28.70;44.30;;;;;;6269723;28;20179;-75
2021/07/08 13:56:31;;;;;;;4.90;1.90;;;28.50;44.50;;;;;;6272841;28;20040;-74
2021/07/08 13:59:35;;;;;;;3.70;1.40;;;28.30;44.60;;;;;;6268042;28;20028;-75
2021/07/08 14:02:36;;;;;;;5.40;1.55;;;28.00;44.60;;;;;;6272858;28;20048;-75
2021/07/08 14:05:37;;;;;;;3.08;1.48;;;27.90;44.80;;;;;;6293209;28;20082;-76
2021/07/08 14:08:41;;;;;;;5.53;1.33;;;27.80;45.00;;;;;;6293192;28;20078;-75
2021/07/08 14:11:43;;;;;;;2.60;1.40;;;28.00;44.70;;;;;;6293146;28;20028;-75
2021/07/08 14:14:44;;;;;;;7.07;1.50;;;28.20;44.20;;;;;;6290912;28;20033;-75
2021/07/08 14:17:45;;;;;;;3.00;1.35;;;28.30;43.70;;;;;;6294846;28;20059;-75
2021/07/08 14:20:47;;;;;;;3.80;1.70;;;28.30;43.40;;;;;;6294185;28;20028;-74
2021/07/08 14:23:48;;;;;;;3.05;1.30;;;28.20;43.40;;;;;;6304426;28;20036;-76
2021/07/08 14:26:50;;;;;;;2.78;1.40;;;27.80;43.50;;;;;;6293438;28;20040;-74
2021/07/08 14:29:51;;;;;;;3.03;1.30;;;27.50;44.20;;;;;;6293909;28;20036;-74
2021/07/08 14:32:53;;;;;;;4.10;1.33;;;27.30;44.60;;;;;;6316698;28;20405;-75
2021/07/08 14:35:54;;;;;;;2.10;1.20;;;27.00;45.20;;;;;;6303900;28;20033;-74
2021/07/08 14:38:56;;;;;;;2.95;1.30;;;26.70;45.70;;;;;;6266943;28;20041;-75
2021/07/08 14:42:02;;;;;;;2.20;1.08;;;26.40;46.20;;;;;;6249563;28;20112;-75
2021/07/08 14:45:11;;;;;;;1.35;1.10;;;26.20;46.60;;;;;;6274429;28;20442;-75
2021/07/08 14:48:15;;;;;;;3.53;1.30;;;26.00;47.00;;;;;;6293193;28;20036;-75
2021/07/08 14:51:19;;;;;;;4.60;1.50;;;25.80;47.50;;;;;;6293624;28;20043;-74
2021/07/08 14:54:21;;;;;;;4.63;1.33;;;25.90;47.80;;;;;;6291893;28;20055;-75
2021/07/08 14:57:23;;;;;;;1.95;1.45;;;26.10;47.50;;;;;;6293700;28;20047;-75
2021/07/08 15:00:24;;;;;;;3.42;1.40;;;26.30;47.00;;;;;;6291699;28;20479;-74
2021/07/08 15:03:25;;;;;;;1.33;1.05;;;26.30;47.10;;;;;;6293460;28;20079;-75
2021/07/08 15:06:26;;;;;;;2.80;1.10;;;26.30;47.00;;;;;;6294593;28;20036;-74
2021/07/08 15:09:27;;;;;;;2.70;1.40;;;26.20;46.60;;;;;;6284705;28;20108;-75
2021/07/08 15:12:28;;;;;;;2.33;1.48;;;26.00;46.70;;;;;;6284180;28;20037;-75
2021/07/08 15:15:30;;;;;;;3.00;1.20;;;25.80;47.10;;;;;;6285867;28;20095;-75
2021/07/08 15:18:31;;;;;;;2.20;1.08;;;25.70;47.50;;;;;;6266860;28;20051;-75
2021/07/08 15:21:32;;;;;;;8.65;1.63;;;25.60;47.50;;;;;;6282444;28;20090;-75
2021/07/08 15:24:34;;;;;;;2.92;1.55;;;25.50;47.70;;;;;;6260324;28;20412;-74
2021/07/08 15:27:35;;;;;;;5.45;1.45;;;25.50;48.00;;;;;;6285195;28;20397;-76
2021/07/08 15:30:37;;;;;;;2.08;1.50;;;25.50;48.40;;;;;;6268463;28;20040;-74
2021/07/08 15:33:45;;;;;;;4.88;1.50;;;25.70;48.20;;;;;;6290850;28;20182;-74
2021/07/08 15:36:50;;;;;;;2.70;1.23;;;26.00;47.70;;;;;;6259237;28;20378;-75
2021/07/08 15:39:53;;;;;;;4.60;1.65;;;26.20;47.40;;;;;;6293533;28;20109;-75
2021/07/08 15:42:55;;;;;;;1.55;1.30;;;26.70;46.40;;;;;;6293523;28;20103;-75
2021/07/08 15:45:56;;;;;;;3.38;1.60;;;26.80;46.10;;;;;;6293764;28;20040;-75
2021/07/08 15:48:57;;;;;;;1.80;1.08;;;26.90;46.00;;;;;;6292859;28;20025;-75
2021/07/08 15:51:59;;;;;;;1.33;1.10;;;26.80;46.10;;;;;;6284257;28;20051;-75
2021/07/08 15:55:00;;;;;;;3.38;1.13;;;26.70;46.30;;;;;;6294288;28;20135;-74
2021/07/08 15:58:01;;;;;;;1.85;1.40;;;26.60;46.50;;;;;;6310585;28;20044;-74
2021/07/08 16:01:03;;;;;;;1.27;1.15;;;26.30;46.60;;;;;;6295460;28;20040;-75
2021/07/08 16:04:05;;;;;;;3.65;1.50;;;26.30;46.90;;;;;;6238752;28;20038;-74
2021/07/08 16:07:08;;;;;;;2.00;1.38;;;26.10;47.10;;;;;;6269814;28;20055;-75
2021/07/08 16:10:09;;;;;;;1.45;1.00;;;26.10;47.20;;;;;;6293886;28;20044;-75
2021/07/08 16:13:11;;;;;;;1.20;1.10;;;26.10;47.20;;;;;;6294988;28;20036;-76
2021/07/08 16:16:12;;;;;;;6.43;1.65;;;26.10;47.20;;;;;;6294973;28;20032;-75